Aérodrome :
LOGIN :

S'inscrire | Disclaimer

   EN    FR    IT 

 










Légende :    VFR   VFR Marginal   IFR   IFR Intensif   IFR Très Intensif
Visi : 
Plafond : 
>= 8 km
>= 3000ft
5 à 8 km
1000 à 3000 ft
1500m à 5 km
500 à 1000 ft
800 à 1500m
200 à 500 ft
< 800m
< 200 ft
Symboles :   Orages  Brouillard  Fortes neiges  Fortes précipitations  Vent > 20 kt
SIGMETs :   Divers  Orages  Givrage  Turbulence  Onde Orograph.  Cendres Volcan.







- Altitude de l'aérodrome : 32 ft
- Code IATA : LKZ


EGUL - RAF Lakenheath

DERNIER METAR :
  • 261726Z 03011KT 9999 OVC014 15/12 A3040 RMK AO2A SLP298 $

METARs EXPIRÉS :
  • 261656Z 02012KT 9999 OVC016 15/12 A3040 RMK AO2A CIG 015 RWY24 SLP298 T01530124 $
  • 261556Z 03015G19KT 9999 OVC015 15/13 A3039 RMK AO2A SLP294 T01540125 $
  • 261511Z 03015KT 9999 OVC015 16/13 A3038 RMK AO2A SLP291 $

TAF AMD TAF EGUL
Valide du 26 à 17h jusqu'au 27 à 18h UTC


261740Z 2617/2718 03009KT 9999 OVC014 QNH3039INS
BECMG 2700/2701 03009KT 9999 FEW015 QNH3045INS TX15/2618Z TN10/2702Z
Pas de NOTAMs connus pour ce terrain.



MET'MAP, la Météo Aéronautique d'un coup d'oeil ! - Copyright ORBIFLY Décembre 2007 - Disclaimer

ORBIFLY MET'MAP TEAM :

Programmation & Développement : Alexandra Zaïnal
Conception & Développement : Baudouin d'Aumeries
Co-Programmation & Développement : Marc-Olivier Méhu
Soutien technique & logistique : Manuel Goepfert

Contact : metmap@orbifly.com




SOURCES & CREDITS :

   NOAA